Concord, NH

6:09 AM EST on February 08, 2016 (GMT -0500)
Loudon | | Change Station
CLOSE
Current Station
Personal Weather Station
Location: Loudon, NH
Elevation: 548 ft
Nearby Weather Stations
Active Advisory: Winter Weather Advisory Active Notice: Local Storm Report

Elev 548 ft 43.26 °N, 71.47 °W | Updated 12 minutes ago

Clear
Clear
19.4 °F
Feels Like 13 °F
N
4.2
Wind Variable Wind from NE

Today
High -- | Low -- °F
--% Chance of Precip.
Yesterday
High -- | Low -- °F
Precip. -- in
Pressure 29.96 in
Visibility 10.0 miles
Clouds Clear
Windchill 13 °F
Dew Point -6 °F
Humidity 32%
Rainfall 0.00 in
Snow Depth Not available.
6:54 AM 5:06 PM
Waning Crescent, 0% visible
METAR KCON 081051Z AUTO 04011G23KT 10SM CLR M06/M20 A2995 RMK AO2 SLP145 T10611200
Pressure 29.96 in
Visibility 10.0 miles
Clouds Clear
Windchill 13 °F
Dew Point -6 °F
Humidity 32%
Rainfall 0.00 in
Snow Depth Not available.
6:54 AM 5:06 PM
Waning Crescent, 0% visible
METAR KCON 081051Z AUTO 04011G23KT 10SM CLR M06/M20 A2995 RMK AO2 SLP145 T10611200

10-Day Weather Forecast

Almanac

Astronomy

Feb. 08, 2016 Rise Set
Actual Time
Civil Twilight
Nautical Twilight
Astronomical Twilight
Moon
Length of Visible Light
Length of Day
Tomorrow will be .
, % of the Moon is Illuminated

Today's Extremes

State Highs State Lows

Community

WunderPhotos

Upload Photos

1,891,420 photos uploaded!

WunderBlog® & News

Nearby

Air Quality

  Air Quality AQ Index Pollutant
Not available.

Snow Depth

Station Depth Elevation

Earthquake Activity

City Distance Mag. Time & Date
Minimum magnitude displayed is 2.5.

Coastal Water Temperatures

Place Temperature

Stations

Nearby Weather Stations

Station Location Temp. Windchill Dew Point Humidity Wind Precip. Elev Updated Type
                   

Watches & Warnings

Winter Weather Advisory
Issued: 3:39 AM EST Feb. 8, 2016 – National Weather Service

... Winter Weather Advisory remains in effect from 6 am this
morning to 6 am EST Tuesday...

* hazard types... snow.

* Accumulations... snow accumulation of 3 to 6 inches.

* Timing... snow begins from south to north this morning and
continues into tonight. Some light snow could linger into
Tuesday but much of the accumulation will be over by Tuesday
morning.

* Impacts... roads will become snow covered and slippery. Strong
winds will cause blowing and drifting snow and could lead to
low visibility in spots.

* Winds... northeast 5 to 10 mph with gusts up to 20 mph.

* Temperatures... 14 to 25.

Precautionary/preparedness actions...

A Winter Weather Advisory for snow means that periods of snow
will cause primarily travel difficulties. Be prepared for snow
covered roads and limited visibilities... and use caution while
driving.